createdAt,value
2018-02-03T00:02:14.900Z,13.20
2018-02-03T00:04:43.857Z,16.43
2018-02-03T00:07:12.588Z,11.97
2018-02-03T00:09:40.591Z,15.73
2018-02-03T00:12:09.348Z,14.17
2018-02-03T00:14:37.333Z,13.53
2018-02-03T00:17:06.213Z,13.93
2018-02-03T00:19:34.184Z,14.73
2018-02-03T00:22:02.237Z,13.40
2018-02-03T00:24:30.239Z,18.57
2018-02-03T00:26:58.337Z,14.40
2018-02-03T00:29:26.605Z,16.33
2018-02-03T00:31:55.530Z,17.13
2018-02-03T00:34:23.464Z,14.27
2018-02-03T00:36:52.409Z,16.53
2018-02-03T00:39:20.788Z,14.90
2018-02-03T00:41:48.803Z,15.40
2018-02-03T00:44:17.805Z,14.07
2018-02-03T00:46:46.697Z,18.70
2018-02-03T00:49:15.498Z,16.43
2018-02-03T00:51:43.552Z,16.40
2018-02-03T00:54:12.324Z,15.40
2018-02-03T00:56:40.971Z,16.08
2018-02-03T00:59:09.023Z,14.77
2018-02-03T01:01:37.876Z,14.77
2018-02-03T01:04:06.182Z,14.63
2018-02-03T01:06:34.975Z,14.83
2018-02-03T01:09:04.285Z,17.05
2018-02-03T01:11:33.165Z,16.17
2018-02-03T01:14:01.442Z,16.45
2018-02-03T01:16:30.019Z,16.67
2018-02-03T01:18:58.787Z,17.25
2018-02-03T01:21:27.422Z,15.77
2018-02-03T01:23:55.525Z,16.63
2018-02-03T01:26:24.302Z,17.63
2018-02-03T01:28:53.066Z,17.65
2018-02-03T01:31:22.490Z,15.75
2018-02-03T01:33:50.790Z,20.08
2018-02-03T01:36:19.557Z,17.27
2018-02-03T01:38:48.762Z,16.37
2018-02-03T01:41:17.647Z,17.23
2018-02-03T01:43:46.793Z,16.60
2018-02-03T01:46:15.229Z,16.93
2018-02-03T01:48:43.972Z,17.30
2018-02-03T01:51:12.805Z,17.60
2018-02-03T01:53:41.995Z,22.25
2018-02-03T01:56:10.035Z,18.20
2018-02-03T01:58:38.097Z,17.37
2018-02-03T02:01:06.354Z,16.73
2018-02-03T02:03:34.762Z,17.07
2018-02-03T02:06:02.814Z,16.77
2018-02-03T02:08:30.956Z,15.77
2018-02-03T02:10:59.755Z,15.45
2018-02-03T02:13:27.754Z,14.80
2018-02-03T02:15:55.756Z,14.63
2018-02-03T02:18:23.849Z,16.73
2018-02-03T02:20:52.617Z,16.60
2018-02-03T02:23:21.382Z,16.52
2018-02-03T02:25:50.115Z,16.17
2018-02-03T02:28:18.852Z,14.83
2018-02-03T02:30:47.660Z,15.70
2018-02-03T02:33:15.705Z,16.50
2018-02-03T02:35:43.701Z,13.90
2018-02-03T02:38:11.642Z,14.87
2018-02-03T02:40:39.645Z,16.70
2018-02-03T02:43:07.712Z,16.80
2018-02-03T02:45:36.090Z,15.20
2018-02-03T02:48:04.024Z,19.13
2018-02-03T02:50:32.082Z,15.97
2018-02-03T02:53:00.183Z,16.83
2018-02-03T02:55:28.134Z,17.40
2018-02-03T02:57:56.637Z,18.33
2018-02-03T03:00:24.567Z,17.27
2018-02-03T03:02:52.511Z,17.20
2018-02-03T03:05:20.485Z,17.57
2018-02-03T03:07:48.840Z,16.05
2018-02-03T03:10:17.054Z,17.53
2018-02-03T03:12:45.103Z,18.58
2018-02-03T03:15:13.965Z,19.70
2018-02-03T03:17:41.966Z,18.90
2018-02-03T03:20:09.923Z,18.97
2018-02-03T03:22:38.191Z,17.80
2018-02-03T03:25:07.045Z,20.35
2018-02-03T03:27:35.784Z,20.73
2018-02-03T03:30:03.950Z,22.20
2018-02-03T03:32:33.314Z,18.97
2018-02-03T03:35:01.818Z,19.50
2018-02-03T03:37:30.068Z,21.17
2018-02-03T03:39:58.077Z,21.12
2018-02-03T03:42:26.930Z,20.50
2018-02-03T03:44:55.258Z,23.17
2018-02-03T03:47:23.158Z,21.80
2018-02-03T03:49:51.239Z,19.23
2018-02-03T03:52:19.293Z,18.95
2018-02-03T03:54:47.322Z,19.83
2018-02-03T03:57:16.286Z,19.83
2018-02-03T03:59:45.286Z,20.10
2018-02-03T04:02:14.309Z,19.48
2018-02-03T04:04:43.038Z,21.15
2018-02-03T04:07:12.117Z,20.50
2018-02-03T04:09:40.298Z,20.62
2018-02-03T04:12:08.619Z,22.45
2018-02-03T04:14:37.870Z,20.37
2018-02-03T04:17:06.056Z,19.42
2018-02-03T04:19:35.099Z,20.77
2018-02-03T04:22:03.785Z,20.42
2018-02-03T04:24:32.119Z,19.65
2018-02-03T04:27:00.383Z,21.95
2018-02-03T04:29:28.782Z,19.65
2018-02-03T04:31:57.813Z,21.52
2018-02-03T04:34:26.046Z,22.00
2018-02-03T04:36:55.843Z,20.60
2018-02-03T04:39:24.035Z,26.12
2018-02-03T04:41:52.381Z,18.30
2018-02-03T04:44:20.692Z,19.75
2018-02-03T04:46:49.014Z,21.87
2018-02-03T04:49:17.438Z,24.70
2018-02-03T04:51:45.688Z,20.35
2018-02-03T04:54:13.914Z,22.42
2018-02-03T04:56:42.939Z,20.70
2018-02-03T04:59:11.714Z,24.75
2018-02-03T05:01:39.899Z,20.48
2018-02-03T05:04:08.117Z,22.75
2018-02-03T05:06:36.382Z,24.37
2018-02-03T05:09:04.945Z,21.02
2018-02-03T05:11:33.329Z,20.65
2018-02-03T05:14:01.676Z,22.55
2018-02-03T05:16:30.135Z,22.35
2018-02-03T05:18:58.486Z,24.45
2018-02-03T05:21:26.873Z,22.70
2018-02-03T05:23:55.955Z,22.83
2018-02-03T05:26:24.332Z,20.80
2018-02-03T05:28:52.720Z,22.33
2018-02-03T05:31:21.136Z,21.90
2018-02-03T05:33:49.454Z,22.00
2018-02-03T05:36:18.044Z,23.00
2018-02-03T05:38:46.332Z,22.67
2018-02-03T05:41:14.632Z,20.25
2018-02-03T05:43:43.588Z,26.10
2018-02-03T05:46:12.008Z,21.33
2018-02-03T05:48:40.337Z,23.77
2018-02-03T05:51:08.721Z,23.40
2018-02-03T05:53:37.136Z,28.30
2018-02-03T05:56:06.395Z,26.75
2018-02-03T05:58:34.986Z,22.42
2018-02-03T06:01:03.487Z,27.20
2018-02-03T06:03:31.780Z,26.02
2018-02-03T06:06:00.968Z,24.12
2018-02-03T06:08:29.551Z,21.58
2018-02-03T06:10:58.727Z,25.10
2018-02-03T06:13:27.388Z,23.75
2018-02-03T06:15:56.495Z,26.70
2018-02-03T06:18:24.719Z,24.02
2018-02-03T06:20:53.158Z,23.83
2018-02-03T06:23:21.428Z,25.98
2018-02-03T06:25:49.758Z,27.20
2018-02-03T06:28:18.496Z,26.65
2018-02-03T06:30:46.795Z,30.35
2018-02-03T06:33:15.031Z,28.55
2018-02-03T06:35:43.935Z,22.13
2018-02-03T06:38:12.762Z,26.33
2018-02-03T06:40:41.207Z,25.75
2018-02-03T06:43:09.415Z,27.15
2018-02-03T06:45:37.912Z,27.65
2018-02-03T06:48:06.336Z,23.95
2018-02-03T06:50:34.975Z,24.90
2018-02-03T06:53:03.367Z,25.83
2018-02-03T06:55:31.946Z,25.15
2018-02-03T06:58:00.313Z,23.33
2018-02-03T07:00:28.693Z,19.30
2018-02-03T07:02:57.017Z,17.15
2018-02-03T07:05:25.375Z,20.52
2018-02-03T07:07:53.970Z,18.17
2018-02-03T07:10:22.366Z,20.35
2018-02-03T07:12:50.819Z,22.42
2018-02-03T07:15:19.269Z,22.48
2018-02-03T07:17:48.019Z,20.73
2018-02-03T07:20:17.261Z,19.20
2018-02-03T07:22:45.530Z,20.02
2018-02-03T07:25:14.214Z,12.60
2018-02-03T07:27:43.052Z,13.40
2018-02-03T07:30:12.348Z,12.20
2018-02-03T07:32:40.735Z,13.73
2018-02-03T07:35:09.382Z,10.80
2018-02-03T07:37:37.616Z,12.05
2018-02-03T07:40:06.032Z,12.35
2018-02-03T07:42:34.460Z,11.65
2018-02-03T07:45:03.806Z,12.37
2018-02-03T07:47:32.033Z,13.98
2018-02-03T07:50:00.339Z,23.87
2018-02-03T07:52:28.681Z,64.47
2018-02-03T07:54:56.953Z,25.17
2018-02-03T07:57:25.216Z,13.65
2018-02-03T07:59:53.461Z,12.93
2018-02-03T08:02:21.950Z,13.05
2018-02-03T08:04:50.483Z,11.65
2018-02-03T08:07:19.776Z,14.07
2018-02-03T08:09:48.931Z,12.23
2018-02-03T08:12:17.216Z,15.75
2018-02-03T08:14:46.960Z,14.25
2018-02-03T08:17:16.319Z,15.50
2018-02-03T08:19:44.546Z,13.93
2018-02-03T08:22:13.595Z,15.98
2018-02-03T08:24:41.857Z,14.65
2018-02-03T08:27:10.176Z,17.62
2018-02-03T08:29:39.169Z,22.00
2018-02-03T08:32:08.965Z,18.67
2018-02-03T08:34:37.162Z,19.85
2018-02-03T08:37:05.620Z,18.50
2018-02-03T08:39:34.092Z,19.75
2018-02-03T08:42:03.008Z,22.05
2018-02-03T08:44:31.391Z,22.80
2018-02-03T08:47:00.580Z,20.23
2018-02-03T08:49:29.645Z,19.30
2018-02-03T08:51:58.717Z,28.93
2018-02-03T08:54:27.012Z,19.23
2018-02-03T08:56:55.492Z,18.37
2018-02-03T08:59:23.909Z,23.60
2018-02-03T09:01:53.077Z,16.00
2018-02-03T09:04:21.433Z,13.13
2018-02-03T09:06:49.909Z,12.60
2018-02-03T09:09:18.560Z,7.72
2018-02-03T09:11:56.435Z,9.25
2018-02-03T09:14:24.898Z,9.73
2018-02-03T09:16:53.273Z,9.35
2018-02-03T09:19:21.854Z,9.82
2018-02-03T09:21:50.114Z,7.12
2018-02-03T09:24:18.712Z,7.87
2018-02-03T09:26:47.195Z,9.70
2018-02-03T09:29:15.777Z,8.82
2018-02-03T09:31:44.155Z,8.10
2018-02-03T09:36:59.789Z,8.35
2018-02-03T09:39:39.398Z,12.77
2018-02-03T09:42:09.326Z,9.43
2018-02-03T09:44:38.924Z,9.88
2018-02-03T09:47:08.274Z,8.73
2018-02-03T09:49:37.439Z,8.80
2018-02-03T09:52:06.653Z,9.05
2018-02-03T09:54:36.928Z,9.98
2018-02-03T09:57:07.666Z,9.20
2018-02-03T09:59:37.143Z,8.27
2018-02-03T10:02:06.117Z,7.55
2018-02-03T10:04:35.759Z,5.80
2018-02-03T10:07:05.077Z,7.78
2018-02-03T10:09:34.572Z,7.72
2018-02-03T10:12:04.292Z,7.05
2018-02-03T10:14:35.059Z,4.63
2018-02-03T10:17:04.330Z,7.80
2018-02-03T10:19:33.993Z,5.63
2018-02-03T10:22:03.323Z,8.10
2018-02-03T10:24:35.796Z,4.70
2018-02-03T10:27:04.886Z,6.00
2018-02-03T10:29:34.805Z,6.30
2018-02-03T10:32:03.236Z,4.60
2018-02-03T10:34:31.742Z,3.87
2018-02-03T10:37:00.824Z,3.40
2018-02-03T10:39:29.829Z,3.20
2018-02-03T10:41:58.877Z,4.07
2018-02-03T10:44:27.900Z,4.63
2018-02-03T10:46:56.264Z,5.07
2018-02-03T10:49:24.696Z,3.78
2018-02-03T10:51:54.369Z,6.53
2018-02-03T10:54:23.447Z,3.10
2018-02-03T10:56:52.945Z,2.63
2018-02-03T10:59:21.138Z,4.90
2018-02-03T11:01:49.392Z,5.53
2018-02-03T11:04:18.140Z,9.37
2018-02-03T11:06:46.591Z,4.30
2018-02-03T11:09:15.834Z,3.03
2018-02-03T11:11:44.129Z,4.43
2018-02-03T11:14:12.742Z,2.33
2018-02-03T11:16:41.667Z,2.83
2018-02-03T11:19:10.082Z,4.97
2018-02-03T11:21:38.566Z,4.12
2018-02-03T11:24:07.058Z,3.97
2018-02-03T11:26:35.355Z,3.73
2018-02-03T11:29:03.699Z,3.57
2018-02-03T11:31:32.393Z,6.07
2018-02-03T11:34:00.696Z,3.40
2018-02-03T11:36:29.861Z,3.60
2018-02-03T11:38:58.135Z,2.30
2018-02-03T11:41:26.757Z,4.43
2018-02-03T11:43:55.851Z,7.40
2018-02-03T11:46:24.297Z,7.30
2018-02-03T11:48:52.767Z,4.30
2018-02-03T11:51:21.258Z,3.50
2018-02-03T11:53:49.525Z,3.73
2018-02-03T11:56:17.907Z,4.97
2018-02-03T11:58:46.227Z,3.80
2018-02-03T12:01:15.280Z,3.37
2018-02-03T12:03:43.701Z,5.87
2018-02-03T12:06:12.754Z,5.30
2018-02-03T12:08:41.037Z,4.00
2018-02-03T12:11:09.560Z,3.43
2018-02-03T12:13:37.780Z,4.13
2018-02-03T12:16:06.013Z,3.43
2018-02-03T12:18:34.483Z,5.17
2018-02-03T12:21:02.706Z,3.27
2018-02-03T12:23:32.732Z,4.93
2018-02-03T12:26:01.068Z,4.33
2018-02-03T12:28:29.269Z,3.00
2018-02-03T12:30:57.603Z,5.40
2018-02-03T12:33:26.651Z,3.57
2018-02-03T12:35:55.173Z,4.07
2018-02-03T12:38:24.228Z,3.93
2018-02-03T12:40:52.608Z,6.83
2018-02-03T12:43:20.885Z,3.83
2018-02-03T12:45:49.255Z,2.40
2018-02-03T12:48:17.916Z,2.73
2018-02-03T12:50:46.422Z,3.77
2018-02-03T12:53:15.025Z,3.93
2018-02-03T12:55:43.331Z,2.30
2018-02-03T12:58:12.474Z,2.77
2018-02-03T13:00:40.745Z,3.57
2018-02-03T13:03:09.090Z,2.90
2018-02-03T13:05:37.513Z,3.03
2018-02-03T13:08:05.939Z,3.30
2018-02-03T13:10:35.053Z,3.03
2018-02-03T13:13:03.569Z,3.97
2018-02-03T13:15:31.849Z,2.90
2018-02-03T13:18:00.104Z,4.33
2018-02-03T13:20:28.493Z,2.33
2018-02-03T13:22:56.820Z,3.23
2018-02-03T13:25:26.388Z,11.80
2018-02-03T13:27:54.724Z,5.30
2018-02-03T13:30:23.083Z,2.30
2018-02-03T13:32:52.059Z,4.03
2018-02-03T13:35:21.208Z,3.60
2018-02-03T13:37:49.407Z,4.87
2018-02-03T13:40:18.585Z,6.37
2018-02-03T13:42:47.252Z,7.37
2018-02-03T13:45:15.889Z,2.60
2018-02-03T13:47:44.255Z,4.33
2018-02-03T13:50:13.628Z,3.30
2018-02-03T13:52:42.030Z,3.10
2018-02-03T13:55:10.331Z,4.83
2018-02-03T13:57:39.351Z,4.50
2018-02-03T14:00:07.966Z,5.03
2018-02-03T14:02:36.642Z,3.80
2018-02-03T14:05:05.039Z,2.03
2018-02-03T14:07:33.580Z,3.50
2018-02-03T14:10:01.889Z,4.93
2018-02-03T14:12:30.284Z,4.77
2018-02-03T14:14:58.660Z,5.47
2018-02-03T14:17:27.058Z,2.63
2018-02-03T14:19:56.358Z,3.80
2018-02-03T14:22:25.360Z,4.13
2018-02-03T14:24:56.257Z,5.23
2018-02-03T14:27:25.344Z,4.83
2018-02-03T14:29:53.620Z,4.20
2018-02-03T14:32:21.954Z,3.60
2018-02-03T14:34:50.489Z,4.17
2018-02-03T14:37:18.975Z,2.83
2018-02-03T14:39:48.173Z,3.73
2018-02-03T14:42:17.070Z,3.13
2018-02-03T14:44:45.706Z,5.10
2018-02-03T14:47:13.990Z,6.97
2018-02-03T14:49:42.491Z,4.47
2018-02-03T14:52:10.760Z,4.57
2018-02-03T14:54:39.044Z,3.47
2018-02-03T14:57:07.295Z,8.27
2018-02-03T14:59:35.689Z,5.43
2018-02-03T15:02:04.820Z,4.93
2018-02-03T15:04:33.249Z,5.97
2018-02-03T15:07:01.526Z,4.93
2018-02-03T15:09:29.901Z,8.33
2018-02-03T15:11:58.366Z,4.80
2018-02-03T15:14:27.696Z,6.70
2018-02-03T15:16:56.367Z,6.97
2018-02-03T15:19:24.643Z,7.40
2018-02-03T15:21:53.048Z,6.10
2018-02-03T15:24:22.075Z,6.33
2018-02-03T15:26:51.129Z,5.57
2018-02-03T15:29:19.386Z,6.53
2018-02-03T15:31:47.812Z,5.63
2018-02-03T15:34:16.563Z,5.03
2018-02-03T15:36:45.199Z,7.43
2018-02-03T15:39:13.534Z,7.47
2018-02-03T15:41:42.562Z,6.87
2018-02-03T15:44:11.496Z,5.90
2018-02-03T15:46:40.035Z,5.57
2018-02-03T15:49:09.070Z,4.03
2018-02-03T15:51:37.351Z,7.90
2018-02-03T15:54:05.875Z,8.57
2018-02-03T15:56:34.896Z,5.60
2018-02-03T15:59:03.937Z,6.00
2018-02-03T16:01:32.132Z,5.37
2018-02-03T16:04:00.835Z,6.73
2018-02-03T16:06:29.163Z,5.77
2018-02-03T16:08:57.377Z,7.07
2018-02-03T16:11:26.185Z,6.80
2018-02-03T16:13:55.226Z,8.40
2018-02-03T16:16:23.518Z,5.20
2018-02-03T16:18:51.908Z,10.63
2018-02-03T16:21:20.371Z,7.30
2018-02-03T16:23:48.779Z,7.40
2018-02-03T16:26:17.852Z,5.73
2018-02-03T16:28:46.276Z,6.20
2018-02-03T16:31:14.733Z,10.07
2018-02-03T16:33:43.017Z,9.40
2018-02-03T16:36:12.110Z,8.20
2018-02-03T16:38:40.338Z,8.23
2018-02-03T16:41:08.544Z,10.20
2018-02-03T16:43:37.299Z,7.87
2018-02-03T16:46:05.618Z,6.47
2018-02-03T16:48:34.265Z,6.70
2018-02-03T16:51:03.362Z,7.03
2018-02-03T16:53:32.549Z,8.50
2018-02-03T16:56:00.885Z,7.53
2018-02-03T16:58:30.233Z,6.93
2018-02-03T17:00:59.742Z,6.27
2018-02-03T17:03:28.665Z,6.10
2018-02-03T17:05:57.731Z,9.33
2018-02-03T17:08:26.335Z,6.63
2018-02-03T17:10:55.359Z,10.50
2018-02-03T17:13:23.570Z,6.97
2018-02-03T17:15:52.064Z,6.33
2018-02-03T17:18:20.672Z,7.87
2018-02-03T17:20:49.115Z,8.25
2018-02-03T17:23:17.754Z,6.20
2018-02-03T17:25:46.216Z,8.03
2018-02-03T17:28:14.555Z,8.57
2018-02-03T17:30:43.142Z,11.90
2018-02-03T17:33:12.243Z,12.20
2018-02-03T17:35:40.503Z,11.20
2018-02-03T17:38:14.321Z,15.13
2018-02-03T17:40:43.143Z,8.30
2018-02-03T17:43:12.338Z,10.40
2018-02-03T17:45:45.941Z,8.53
2018-02-03T17:48:14.283Z,7.90
2018-02-03T17:50:44.026Z,12.37
2018-02-03T17:53:13.310Z,7.60
2018-02-03T17:55:46.332Z,9.40
2018-02-03T17:58:14.650Z,11.33
2018-02-03T18:00:43.479Z,8.65
2018-02-03T18:03:11.959Z,10.90
2018-02-03T18:05:44.636Z,10.20
2018-02-03T18:08:13.075Z,10.13
2018-02-03T18:10:41.676Z,15.48
2018-02-03T18:13:10.441Z,13.40
2018-02-03T18:15:38.932Z,14.77
2018-02-03T18:18:07.304Z,14.87
2018-02-03T18:20:35.681Z,10.68
2018-02-03T18:23:04.115Z,12.98
2018-02-03T18:25:32.568Z,12.60
2018-02-03T18:28:02.106Z,12.07
2018-02-03T18:30:30.559Z,10.90
2018-02-03T18:33:00.080Z,11.12
2018-02-03T18:35:28.619Z,9.95
2018-02-03T18:37:57.840Z,13.30
2018-02-03T18:40:26.942Z,14.55
2018-02-03T18:42:56.770Z,11.40
2018-02-03T18:45:34.262Z,12.63
2018-02-03T18:48:03.770Z,14.73
2018-02-03T18:50:33.369Z,14.60
2018-02-03T18:53:01.699Z,14.20
2018-02-03T18:55:29.996Z,14.05
2018-02-03T18:57:58.350Z,14.38
2018-02-03T19:00:27.180Z,15.75
2018-02-03T19:02:57.228Z,13.88
2018-02-03T19:05:25.641Z,13.65
2018-02-03T19:07:54.080Z,11.43
2018-02-03T19:10:22.641Z,14.87
2018-02-03T19:12:51.087Z,12.23
2018-02-03T19:15:20.322Z,13.27
2018-02-03T19:17:50.225Z,12.48
2018-02-03T19:20:19.490Z,12.57
2018-02-03T19:22:48.597Z,12.00
2018-02-03T19:25:17.370Z,12.32
2018-02-03T19:27:45.792Z,16.17
2018-02-03T19:30:14.228Z,14.25
2018-02-03T19:32:42.758Z,14.50
2018-02-03T19:35:11.302Z,14.55
2018-02-03T19:37:39.823Z,13.15
2018-02-03T19:40:09.118Z,12.90
2018-02-03T19:42:38.747Z,11.10
2018-02-03T19:45:07.108Z,12.07
2018-02-03T19:47:36.621Z,12.93
2018-02-03T19:50:05.434Z,10.82
2018-02-03T19:52:35.418Z,11.35
2018-02-03T19:55:04.670Z,13.27
2018-02-03T19:57:33.983Z,10.02
2018-02-03T20:00:02.500Z,12.50
2018-02-03T20:02:31.086Z,12.68
2018-02-03T20:04:59.889Z,13.02
2018-02-03T20:07:28.514Z,14.77
2018-02-03T20:09:57.094Z,12.37
2018-02-03T20:12:26.340Z,13.80
2018-02-03T20:14:55.439Z,11.27
2018-02-03T20:17:24.289Z,13.00
2018-02-03T20:19:53.221Z,11.05
2018-02-03T20:22:21.900Z,10.75
2018-02-03T20:24:51.855Z,13.80
2018-02-03T20:27:21.133Z,11.68
2018-02-03T20:29:50.900Z,11.80
2018-02-03T20:32:20.027Z,11.52
2018-02-03T20:34:48.909Z,45.88
2018-02-03T20:37:17.601Z,10.90
2018-02-03T20:39:46.579Z,10.98
2018-02-03T20:42:17.000Z,11.02
2018-02-03T20:44:47.252Z,11.65
2018-02-03T20:47:17.365Z,16.40
2018-02-03T20:49:46.569Z,12.35
2018-02-03T20:52:15.527Z,12.65
2018-02-03T20:54:44.855Z,15.43
2018-02-03T20:57:15.636Z,16.35
2018-02-03T20:59:44.459Z,15.82
2018-02-03T21:02:14.350Z,12.45
2018-02-03T21:04:42.864Z,15.75
2018-02-03T21:07:11.755Z,13.43
2018-02-03T21:09:40.312Z,16.52
2018-02-03T21:12:10.260Z,13.50
2018-02-03T21:14:39.741Z,13.10
2018-02-03T21:17:08.637Z,11.40
2018-02-03T21:19:37.532Z,14.25
2018-02-03T21:22:06.195Z,14.35
2018-02-03T21:24:35.510Z,14.48
2018-02-03T21:27:04.976Z,13.70
2018-02-03T21:29:33.748Z,14.32
2018-02-03T21:32:04.490Z,14.38
2018-02-03T21:34:33.231Z,13.27
2018-02-03T21:37:02.522Z,12.77
2018-02-03T21:39:31.214Z,13.10
2018-02-03T21:42:00.570Z,16.62
2018-02-03T21:44:29.405Z,14.20
2018-02-03T21:46:59.413Z,13.55
2018-02-03T21:49:28.408Z,11.52
2018-02-03T21:51:57.621Z,13.60
2018-02-03T21:54:26.886Z,11.73
2018-02-03T21:56:56.278Z,11.15
2018-02-03T21:59:37.877Z,12.10
2018-02-03T22:02:27.248Z,11.45
2018-02-03T22:05:00.793Z,13.57
2018-02-03T22:07:31.509Z,15.18
2018-02-03T22:10:00.924Z,11.12
2018-02-03T22:12:31.755Z,13.65
2018-02-03T22:15:01.044Z,13.43
2018-02-03T22:17:30.039Z,13.25
2018-02-03T22:19:58.926Z,14.25
2018-02-03T22:22:27.708Z,13.35
2018-02-03T22:24:56.733Z,11.60
2018-02-03T22:27:25.709Z,13.43
2018-02-03T22:29:54.467Z,11.80
2018-02-03T22:32:23.953Z,12.05
2018-02-03T22:34:53.908Z,13.52
2018-02-03T22:37:24.417Z,14.50
2018-02-03T22:39:53.221Z,14.10
2018-02-03T22:42:22.059Z,11.20
2018-02-03T22:44:50.998Z,13.52
2018-02-03T22:47:20.391Z,14.45
2018-02-03T22:49:49.547Z,14.65
2018-02-03T22:52:18.170Z,15.20
2018-02-03T22:54:47.059Z,17.25
2018-02-03T22:57:16.224Z,16.20
2018-02-03T22:59:45.058Z,12.95
2018-02-03T23:02:18.250Z,14.43
2018-02-03T23:04:47.001Z,12.23
2018-02-03T23:07:15.278Z,14.87
2018-02-03T23:09:45.110Z,13.52
2018-02-03T23:12:13.731Z,12.35
2018-02-03T23:14:43.271Z,13.20
2018-02-03T23:17:11.725Z,13.45
2018-02-03T23:19:40.130Z,13.30
2018-02-03T23:22:08.741Z,11.50
2018-02-03T23:24:37.741Z,11.32
2018-02-03T23:27:06.742Z,15.00
2018-02-03T23:29:35.690Z,12.98
2018-02-03T23:32:04.365Z,14.43
2018-02-03T23:34:33.204Z,13.40
2018-02-03T23:37:02.366Z,12.73
2018-02-03T23:39:31.698Z,15.45
2018-02-03T23:42:00.076Z,12.20
2018-02-03T23:44:28.537Z,17.12
2018-02-03T23:46:57.405Z,14.10
2018-02-03T23:49:25.838Z,15.70
2018-02-03T23:51:54.287Z,16.00
2018-02-03T23:54:23.484Z,15.43
2018-02-03T23:56:52.593Z,16.52
2018-02-03T23:59:21.442Z,16.20
